createdAt,value
2023-09-11T00:01:27.615Z,101599.63
2023-09-11T00:03:55.285Z,101589.06
2023-09-11T00:06:23.007Z,101598.97
2023-09-11T00:08:52.045Z,101601.75
2023-09-11T00:11:20.262Z,101604.22
2023-09-11T00:13:47.911Z,101597.63
2023-09-11T00:16:15.607Z,101592.78
2023-09-11T00:18:43.540Z,101591.53
2023-09-11T00:21:11.534Z,101591.94
2023-09-11T00:23:39.201Z,101587.72
2023-09-11T00:26:08.377Z,101590.34
2023-09-11T00:28:36.042Z,101575.41
2023-09-11T00:31:03.763Z,101577.88
2023-09-11T00:33:31.437Z,101573.47
2023-09-11T00:35:59.126Z,101574.78
2023-09-11T00:38:26.890Z,101570.16
2023-09-11T00:40:54.565Z,101549.94
2023-09-11T00:43:23.626Z,101562.38
2023-09-11T00:45:52.186Z,101566.94
2023-09-11T00:48:20.718Z,101560.22
2023-09-11T00:50:49.545Z,101548.03
2023-09-11T00:53:17.760Z,101516.44
2023-09-11T00:55:46.762Z,101533.94
2023-09-11T01:00:46.814Z,101532.38
2023-09-11T01:03:15.510Z,101509.31
2023-09-11T01:05:44.817Z,101503.44
2023-09-11T01:08:12.663Z,101499.69
2023-09-11T01:10:40.310Z,101487.38
2023-09-11T01:13:07.994Z,101475.38
2023-09-11T01:15:43.772Z,101450.28
2023-09-11T01:18:30.230Z,101464.75
2023-09-11T01:21:39.222Z,101480.69
2023-09-11T01:24:33.334Z,101470.66
2023-09-11T01:27:41.132Z,101492.72
2023-09-11T01:30:11.541Z,101483.53
2023-09-11T01:32:40.098Z,101510.06
2023-09-11T01:35:08.378Z,101506.47
2023-09-11T01:37:36.047Z,101498.94
2023-09-11T01:40:03.919Z,101522.88
2023-09-11T01:42:36.611Z,101507.38
2023-09-11T01:45:07.133Z,101510.16
2023-09-11T01:47:36.439Z,101505.44
2023-09-11T01:50:06.953Z,101503.72
2023-09-11T01:52:35.883Z,101490.75
2023-09-11T01:55:04.399Z,101495.78
2023-09-11T01:57:32.111Z,101491.53
2023-09-11T01:59:59.761Z,101496.78
2023-09-11T02:02:31.020Z,101481.78
2023-09-11T02:05:00.135Z,101477.16
2023-09-11T02:07:27.780Z,101472.91
2023-09-11T02:09:55.488Z,101475.06
2023-09-11T02:12:24.134Z,101464.47
2023-09-11T02:14:51.838Z,101464.63
2023-09-11T02:17:19.532Z,101468.00
2023-09-11T02:19:47.196Z,101459.91
2023-09-11T02:22:17.182Z,101461.00
2023-09-11T02:24:44.843Z,101449.22
2023-09-11T02:27:12.496Z,101454.84
2023-09-11T02:29:40.190Z,101443.88
2023-09-11T02:32:07.962Z,101447.59
2023-09-11T02:34:35.574Z,101447.50
2023-09-11T02:37:03.249Z,101441.84
2023-09-11T02:39:32.231Z,101445.75
2023-09-11T02:42:00.282Z,101431.63
2023-09-11T02:44:27.993Z,101434.22
2023-09-11T02:46:55.655Z,101436.44
2023-09-11T02:49:23.294Z,101430.78
2023-09-11T02:51:51.011Z,101425.91
2023-09-11T02:54:20.513Z,101419.28
2023-09-11T02:56:49.546Z,101416.63
2023-09-11T02:59:17.190Z,101420.50
2023-09-11T03:01:45.903Z,101404.13
2023-09-11T03:04:13.546Z,101414.34
2023-09-11T03:06:41.192Z,101404.00
2023-09-11T03:09:08.882Z,101414.63
2023-09-11T03:11:36.625Z,101417.13
2023-09-11T03:14:05.784Z,101423.75
2023-09-11T03:16:33.451Z,101408.75
2023-09-11T03:19:01.098Z,101407.41
2023-09-11T03:21:28.711Z,101407.16
2023-09-11T03:23:56.408Z,101410.97
2023-09-11T03:26:24.164Z,101410.13
2023-09-11T03:28:51.848Z,101397.19
2023-09-11T03:31:20.850Z,101397.59
2023-09-11T03:33:48.673Z,101408.34
2023-09-11T03:36:17.420Z,101400.53
2023-09-11T03:38:45.593Z,101390.88
2023-09-11T03:41:13.409Z,101390.81
2023-09-11T03:43:41.056Z,101391.59
2023-09-11T03:46:08.913Z,101386.31
2023-09-11T03:48:38.269Z,101366.16
2023-09-11T03:51:06.063Z,101374.41
2023-09-11T03:53:35.061Z,101370.31
2023-09-11T03:56:03.366Z,101375.66
2023-09-11T03:58:31.372Z,101371.31
2023-09-11T04:00:59.040Z,101359.03
2023-09-11T04:03:26.826Z,101356.81
2023-09-11T04:05:56.087Z,101366.97
2023-09-11T04:08:23.836Z,101369.44
2023-09-11T04:10:51.549Z,101367.50
2023-09-11T04:13:19.196Z,101352.91
2023-09-11T04:15:46.879Z,101368.09
2023-09-11T04:18:14.597Z,101366.53
2023-09-11T04:20:42.306Z,101354.59
2023-09-11T04:23:11.322Z,101366.84
2023-09-11T04:25:39.063Z,101350.09
2023-09-11T04:28:07.244Z,101352.06
2023-09-11T04:30:34.958Z,101360.47
2023-09-11T04:33:04.086Z,101360.88
2023-09-11T04:35:32.155Z,101357.84
2023-09-11T04:37:59.841Z,101341.16
2023-09-11T04:40:28.898Z,101353.16
2023-09-11T04:42:57.498Z,101330.78
2023-09-11T04:45:25.141Z,101360.00
2023-09-11T04:47:52.809Z,101365.34
2023-09-11T04:50:20.706Z,101349.38
2023-09-11T04:52:48.368Z,101337.97
2023-09-11T04:55:16.016Z,101353.72
2023-09-11T04:57:45.015Z,101359.16
2023-09-11T05:00:14.592Z,101345.25
2023-09-11T05:02:42.506Z,101335.75
2023-09-11T05:05:10.501Z,101346.25
2023-09-11T05:07:38.132Z,101352.03
2023-09-11T05:10:09.185Z,101376.56
2023-09-11T05:12:36.878Z,101380.75
2023-09-11T05:15:06.620Z,101384.22
2023-09-11T05:17:34.408Z,101381.75
2023-09-11T05:20:02.081Z,101360.09
2023-09-11T05:22:29.687Z,101371.75
2023-09-11T05:24:57.319Z,101375.91
2023-09-11T05:27:24.943Z,101385.97
2023-09-11T05:29:53.223Z,101344.25
2023-09-11T05:32:24.349Z,101342.47
2023-09-11T05:34:52.061Z,101355.50
2023-09-11T05:37:19.730Z,101378.59
2023-09-11T05:39:48.620Z,101380.66
2023-09-11T05:42:16.268Z,101362.75
2023-09-11T05:44:44.787Z,101352.97
2023-09-11T05:47:12.568Z,101346.41
2023-09-11T05:49:41.571Z,101328.13
2023-09-11T05:52:09.286Z,101359.66
2023-09-11T05:54:36.899Z,101374.34
2023-09-11T05:57:05.216Z,101352.28
2023-09-11T05:59:32.935Z,101356.50
2023-09-11T06:02:00.711Z,101356.75
2023-09-11T06:04:28.848Z,101361.03
2023-09-11T06:06:57.871Z,101359.94
2023-09-11T06:09:25.689Z,101364.78
2023-09-11T06:11:53.874Z,101378.28
2023-09-11T06:14:21.543Z,101380.88
2023-09-11T06:16:49.235Z,101375.75
2023-09-11T06:19:16.974Z,101363.31
2023-09-11T06:21:45.450Z,101353.00
2023-09-11T06:24:15.422Z,101348.69
2023-09-11T06:26:44.463Z,101350.47
2023-09-11T06:29:13.246Z,101354.16
2023-09-11T06:31:41.040Z,101326.03
2023-09-11T06:34:08.698Z,101331.53
2023-09-11T06:36:36.339Z,101326.88
2023-09-11T06:39:05.823Z,101326.00
2023-09-11T06:41:34.882Z,101320.19
2023-09-11T06:44:03.536Z,101307.16
2023-09-11T06:46:31.176Z,101303.97
2023-09-11T06:48:59.622Z,101308.69
2023-09-11T06:51:27.327Z,101311.09
2023-09-11T06:53:56.493Z,101303.56
2023-09-11T06:56:24.239Z,101305.16
2023-09-11T06:58:53.233Z,101301.09
2023-09-11T07:01:20.887Z,101296.19
2023-09-11T07:03:48.996Z,101310.50
2023-09-11T07:06:16.797Z,101310.72
2023-09-11T07:08:44.703Z,101295.53
2023-09-11T07:11:12.496Z,101301.06
2023-09-11T07:13:40.132Z,101295.88
2023-09-11T07:16:09.191Z,101316.38
2023-09-11T07:18:37.012Z,101302.66
2023-09-11T07:21:04.956Z,101281.97
2023-09-11T07:23:32.732Z,101275.91
2023-09-11T07:26:00.514Z,101285.56
2023-09-11T07:28:28.723Z,101286.09
2023-09-11T07:30:56.585Z,101301.63
2023-09-11T07:33:25.882Z,101300.81
2023-09-11T07:35:53.722Z,101311.72
2023-09-11T07:38:21.376Z,101310.53
2023-09-11T07:40:49.003Z,101298.78
2023-09-11T07:43:16.640Z,101289.22
2023-09-11T07:45:44.432Z,101287.94
2023-09-11T07:48:12.175Z,101274.25
2023-09-11T07:50:41.343Z,101272.63
2023-09-11T07:53:09.015Z,101261.84
2023-09-11T07:55:38.173Z,101262.53
2023-09-11T07:58:06.239Z,101264.78
2023-09-11T08:00:33.986Z,101263.03
2023-09-11T08:03:01.923Z,101273.19
2023-09-11T08:05:29.708Z,101263.63
2023-09-11T08:08:02.561Z,101271.59
2023-09-11T08:10:30.477Z,101262.53
2023-09-11T08:12:58.233Z,101277.31
2023-09-11T08:15:26.366Z,101277.72
2023-09-11T08:17:54.183Z,101256.59
2023-09-11T08:20:21.863Z,101262.16
2023-09-11T08:22:49.518Z,101272.88
2023-09-11T08:25:18.767Z,101291.59
2023-09-11T08:27:46.595Z,101282.19
2023-09-11T08:30:14.840Z,101287.78
2023-09-11T08:32:42.608Z,101266.19
2023-09-11T08:35:10.331Z,101285.91
2023-09-11T08:37:38.041Z,101263.06
2023-09-11T08:40:06.942Z,101278.09
2023-09-11T08:42:36.139Z,101261.59
2023-09-11T08:45:03.867Z,101250.91
2023-09-11T08:47:32.699Z,101244.25
2023-09-11T08:50:06.762Z,101236.91
2023-09-11T08:52:36.245Z,101271.13
2023-09-11T08:55:09.459Z,101230.22
2023-09-11T08:57:41.315Z,101257.44
2023-09-11T09:00:13.624Z,101252.19
2023-09-11T09:02:41.892Z,101249.28
2023-09-11T09:05:10.441Z,101243.28
2023-09-11T09:07:40.174Z,101244.41
2023-09-11T09:10:09.551Z,101267.50
2023-09-11T09:12:39.212Z,101239.94
2023-09-11T09:15:08.707Z,101251.16
2023-09-11T09:17:36.451Z,101247.22
2023-09-11T09:20:05.422Z,101258.47
2023-09-11T09:22:33.088Z,101239.94
2023-09-11T09:25:00.798Z,101251.66
2023-09-11T09:27:29.519Z,101265.28
2023-09-11T09:29:58.694Z,101277.63
2023-09-11T09:32:26.977Z,101280.47
2023-09-11T09:34:56.289Z,101275.47
2023-09-11T09:37:24.029Z,101250.53
2023-09-11T09:39:52.015Z,101272.00
2023-09-11T09:42:20.129Z,101243.91
2023-09-11T09:44:53.706Z,101252.63
2023-09-11T09:47:24.215Z,101255.41
2023-09-11T09:49:53.724Z,101267.28
2023-09-11T09:52:22.740Z,101252.00
2023-09-11T09:54:51.953Z,101255.59
2023-09-11T09:57:21.294Z,101235.44
2023-09-11T09:59:51.145Z,101227.34
2023-09-11T10:02:27.587Z,101247.56
2023-09-11T10:04:57.962Z,101233.84
2023-09-11T10:07:44.114Z,101231.56
2023-09-11T10:10:22.968Z,101206.56
2023-09-11T10:12:55.295Z,101213.94
2023-09-11T10:15:23.823Z,101222.44
2023-09-11T10:17:56.708Z,101229.78
2023-09-11T10:20:25.126Z,101203.19
2023-09-11T10:22:55.273Z,101217.88
2023-09-11T10:25:23.936Z,101209.94
2023-09-11T10:27:54.910Z,101194.63
2023-09-11T10:30:26.699Z,101188.19
2023-09-11T10:33:00.558Z,101197.56
2023-09-11T10:35:31.478Z,101186.53
2023-09-11T10:38:00.531Z,101178.28
2023-09-11T10:40:31.377Z,101170.19
2023-09-11T10:42:59.270Z,101162.72
2023-09-11T10:45:27.762Z,101165.09
2023-09-11T10:47:57.017Z,101166.09
2023-09-11T10:50:31.800Z,101149.91
2023-09-11T10:52:59.755Z,101147.28
2023-09-11T10:55:27.629Z,101151.91
2023-09-11T10:57:58.815Z,101143.31
2023-09-11T11:00:27.661Z,101139.75
2023-09-11T11:02:57.902Z,101150.06
2023-09-11T11:05:28.098Z,101103.38
2023-09-11T11:07:55.807Z,101140.34
2023-09-11T11:10:23.671Z,101135.78
2023-09-11T11:13:06.108Z,101139.59
2023-09-11T11:15:33.948Z,101139.66
2023-09-11T11:18:11.304Z,101135.81
2023-09-11T11:20:50.226Z,101131.56
2023-09-11T11:23:17.927Z,101152.03
2023-09-11T11:25:49.319Z,101123.25
2023-09-11T11:28:18.156Z,101140.38
2023-09-11T11:30:46.570Z,101131.94
2023-09-11T11:33:17.450Z,101125.44
2023-09-11T11:35:48.487Z,101116.16
2023-09-11T11:38:17.910Z,101140.63
2023-09-11T11:40:46.443Z,101144.00
2023-09-11T11:43:15.561Z,101126.91
2023-09-11T11:45:45.887Z,101133.31
2023-09-11T11:48:13.631Z,101140.53
2023-09-11T11:50:44.709Z,101113.22
2023-09-11T11:53:16.632Z,101108.81
2023-09-11T11:55:45.312Z,101113.84
2023-09-11T11:58:14.138Z,101119.38
2023-09-11T12:00:42.056Z,101110.66
2023-09-11T12:03:10.467Z,101121.22
2023-09-11T12:05:38.767Z,101107.47
2023-09-11T12:08:12.980Z,101108.38
2023-09-11T12:10:45.444Z,101106.88
2023-09-11T12:13:14.147Z,101109.22
2023-09-11T12:15:41.842Z,101106.03
2023-09-11T12:18:09.976Z,101109.16
2023-09-11T12:20:37.934Z,101109.19
2023-09-11T12:23:06.917Z,101104.09
2023-09-11T12:25:34.695Z,101113.38
2023-09-11T12:28:02.436Z,101110.50
2023-09-11T12:30:30.143Z,101104.31
2023-09-11T12:32:59.711Z,101100.09
2023-09-11T12:35:33.466Z,101105.47
2023-09-11T12:38:01.200Z,101092.56
2023-09-11T12:40:30.431Z,101093.72
2023-09-11T12:42:58.119Z,101099.63
2023-09-11T12:45:25.892Z,101097.22
2023-09-11T12:47:53.702Z,101088.69
2023-09-11T12:50:22.191Z,101102.13
2023-09-11T12:52:50.502Z,101096.41
2023-09-11T12:55:18.203Z,101089.53
2023-09-11T12:57:47.202Z,101093.34
2023-09-11T13:00:15.662Z,101096.78
2023-09-11T13:02:44.370Z,101086.84
2023-09-11T13:05:12.367Z,101097.84
2023-09-11T13:07:40.217Z,101079.81
2023-09-11T13:10:09.022Z,101082.28
2023-09-11T13:12:36.699Z,101096.06
2023-09-11T13:15:07.232Z,101078.69
2023-09-11T13:17:35.070Z,101091.25
2023-09-11T13:20:04.066Z,101088.25
2023-09-11T13:22:32.254Z,101053.84
2023-09-11T13:24:59.954Z,101089.03
2023-09-11T13:27:28.027Z,101080.78
2023-09-11T13:29:55.744Z,101090.44
2023-09-11T13:32:24.858Z,101077.28
2023-09-11T13:34:52.554Z,101065.06
2023-09-11T13:37:20.233Z,101088.34
2023-09-11T13:39:47.894Z,101071.50
2023-09-11T13:42:15.580Z,101073.78
2023-09-11T13:44:43.260Z,101065.75
2023-09-11T13:47:10.938Z,101055.47
2023-09-11T13:49:39.916Z,101059.56
2023-09-11T13:52:08.337Z,101056.09
2023-09-11T13:54:35.984Z,101042.00
2023-09-11T13:57:03.668Z,101059.94
2023-09-11T13:59:31.377Z,101049.34
2023-09-11T14:01:59.065Z,101051.63
2023-09-11T14:04:26.832Z,101058.97
2023-09-11T14:06:55.940Z,101049.53
2023-09-11T14:09:23.684Z,101045.41
2023-09-11T14:11:51.425Z,101036.34
2023-09-11T14:14:19.117Z,101043.44
2023-09-11T14:16:46.777Z,101043.78
2023-09-11T14:19:14.447Z,101042.34
2023-09-11T14:21:42.128Z,101028.81
2023-09-11T14:24:11.219Z,101037.13
2023-09-11T14:26:38.906Z,101016.59
2023-09-11T14:29:06.700Z,101039.25
2023-09-11T14:31:34.464Z,101035.94
2023-09-11T14:34:02.161Z,101032.34
2023-09-11T14:36:29.790Z,101025.94
2023-09-11T14:38:59.141Z,101028.94
2023-09-11T14:41:28.371Z,101032.81
2023-09-11T14:43:56.015Z,101033.56
2023-09-11T14:46:23.704Z,101014.41
2023-09-11T14:48:56.938Z,101017.13
2023-09-11T14:51:25.030Z,101014.00
2023-09-11T14:53:53.021Z,101023.13
2023-09-11T14:56:20.705Z,101025.53
2023-09-11T14:58:49.678Z,101017.72
2023-09-11T15:01:17.413Z,101016.56
2023-09-11T15:03:45.385Z,101011.66
2023-09-11T15:06:13.308Z,101010.59
2023-09-11T15:08:41.133Z,101015.91
2023-09-11T15:11:09.318Z,101002.88
2023-09-11T15:13:36.982Z,101017.28
2023-09-11T15:16:06.261Z,101013.81
2023-09-11T15:18:34.105Z,101027.88
2023-09-11T15:21:01.900Z,101013.56
2023-09-11T15:23:29.735Z,101008.63
2023-09-11T15:25:57.380Z,101028.50
2023-09-11T15:28:25.100Z,101026.41
2023-09-11T15:30:53.399Z,101009.41
2023-09-11T15:33:23.271Z,101022.28
2023-09-11T15:36:02.570Z,101013.44
2023-09-11T15:38:30.530Z,101015.81
2023-09-11T15:41:03.972Z,101014.66
2023-09-11T15:43:33.403Z,101017.78
2023-09-11T15:46:01.540Z,101023.91
2023-09-11T15:48:31.555Z,101011.13
2023-09-11T15:50:59.565Z,101005.25
2023-09-11T15:53:27.759Z,101008.91
2023-09-11T15:55:55.869Z,101002.34
2023-09-11T15:58:24.566Z,101002.53
2023-09-11T16:00:52.934Z,100996.84
2023-09-11T16:03:21.185Z,101009.56
2023-09-11T16:05:50.759Z,101006.63
2023-09-11T16:08:18.932Z,101008.31
2023-09-11T16:10:47.352Z,100998.44
2023-09-11T16:13:15.155Z,101013.13
2023-09-11T16:15:43.236Z,101025.53
2023-09-11T16:18:11.229Z,101025.13
2023-09-11T16:20:39.161Z,101015.50
2023-09-11T16:23:09.065Z,101018.91
2023-09-11T16:25:39.632Z,101028.56
2023-09-11T16:28:08.499Z,101039.97
2023-09-11T16:30:36.316Z,101015.13
2023-09-11T16:33:04.881Z,101034.00
2023-09-11T16:35:33.096Z,101037.84
2023-09-11T16:38:01.308Z,101021.09
2023-09-11T16:40:30.410Z,101030.69
2023-09-11T16:42:58.042Z,101039.72
2023-09-11T16:45:25.717Z,101035.84
2023-09-11T16:47:54.020Z,101034.09
2023-09-11T16:50:21.716Z,101035.06
2023-09-11T16:52:50.375Z,101032.53
2023-09-11T16:55:18.023Z,101029.50
2023-09-11T16:57:47.033Z,101012.09
2023-09-11T17:00:16.248Z,101027.22
2023-09-11T17:02:44.460Z,101024.31
2023-09-11T17:05:12.279Z,101037.03
2023-09-11T17:07:39.951Z,101030.19
2023-09-11T17:10:08.602Z,101034.59
2023-09-11T17:12:40.653Z,101037.91
2023-09-11T17:15:11.148Z,101039.97
2023-09-11T17:17:39.264Z,101023.69
2023-09-11T17:20:07.723Z,101030.81
2023-09-11T17:22:35.398Z,101030.66
2023-09-11T17:25:03.751Z,101031.50
2023-09-11T17:27:31.447Z,101028.59
2023-09-11T17:29:59.114Z,101033.00
2023-09-11T17:32:28.164Z,101027.00
2023-09-11T17:34:55.803Z,101025.59
2023-09-11T17:37:23.414Z,101037.44
2023-09-11T17:39:52.760Z,101029.53
2023-09-11T17:42:20.900Z,101030.69
2023-09-11T17:44:48.615Z,101033.56
2023-09-11T17:47:16.251Z,101039.19
2023-09-11T17:49:45.407Z,101031.47
2023-09-11T17:52:13.202Z,101041.31
2023-09-11T17:54:40.888Z,101038.91
2023-09-11T17:57:08.575Z,101039.19
2023-09-11T17:59:36.483Z,101038.78
2023-09-11T18:02:04.824Z,101038.34
2023-09-11T18:04:33.847Z,101032.06
2023-09-11T18:07:03.250Z,101043.97
2023-09-11T18:09:30.897Z,101048.19
2023-09-11T18:11:58.560Z,101044.25
2023-09-11T18:14:26.299Z,101051.97
2023-09-11T18:16:53.958Z,101049.84
2023-09-11T18:19:21.590Z,101054.69
2023-09-11T18:21:49.246Z,101064.94
2023-09-11T18:24:18.294Z,101061.28
2023-09-11T18:26:45.953Z,101063.50
2023-09-11T18:29:14.874Z,101058.94
2023-09-11T18:31:42.945Z,101064.75
2023-09-11T18:34:11.592Z,101069.41
2023-09-11T18:36:40.586Z,101058.22
2023-09-11T18:39:08.270Z,101063.31
2023-09-11T18:41:37.337Z,101064.94
2023-09-11T18:44:05.625Z,101068.34
2023-09-11T18:46:33.449Z,101062.59
2023-09-11T18:49:01.916Z,101064.25
2023-09-11T18:51:29.869Z,101072.28
2023-09-11T18:53:59.726Z,101055.47
2023-09-11T18:56:27.435Z,101060.16
2023-09-11T18:58:56.408Z,101072.19
2023-09-11T19:01:24.306Z,101066.13
2023-09-11T19:03:52.920Z,101063.91
2023-09-11T19:06:20.924Z,101066.28
2023-09-11T19:08:48.642Z,101069.81
2023-09-11T19:11:16.388Z,101076.44
2023-09-11T19:13:44.045Z,101094.88
2023-09-11T19:16:13.198Z,101114.00
2023-09-11T19:18:41.092Z,101101.25
2023-09-11T19:21:09.438Z,101094.44
2023-09-11T19:23:37.404Z,101105.28
2023-09-11T19:26:06.982Z,101109.00
2023-09-11T19:28:35.073Z,101097.53
2023-09-11T19:31:03.816Z,101096.00
2023-09-11T19:33:33.966Z,101105.69
2023-09-11T19:36:01.886Z,101094.75
2023-09-11T19:38:29.583Z,101101.03
2023-09-11T19:40:57.258Z,101097.69
2023-09-11T19:43:24.932Z,101113.25
2023-09-11T19:45:52.639Z,101108.63
2023-09-11T19:48:21.390Z,101114.06
2023-09-11T19:50:50.497Z,101114.63
2023-09-11T19:53:18.118Z,101099.78
2023-09-11T19:55:45.825Z,101109.44
2023-09-11T19:58:13.483Z,101095.97
2023-09-11T20:00:41.281Z,101107.22
2023-09-11T20:03:09.053Z,101104.53
2023-09-11T20:05:36.823Z,101104.47
2023-09-11T20:08:06.253Z,101106.06
2023-09-11T20:10:33.928Z,101115.22
2023-09-11T20:13:01.561Z,101120.03
2023-09-11T20:15:29.386Z,101119.59
2023-09-11T20:17:57.104Z,101110.84
2023-09-11T20:20:24.812Z,101119.41
2023-09-11T20:22:52.501Z,101118.72
2023-09-11T20:25:21.505Z,101117.63
2023-09-11T20:27:49.192Z,101103.94
2023-09-11T20:30:18.464Z,101109.44
2023-09-11T20:32:46.242Z,101105.94
2023-09-11T20:35:13.984Z,101109.72
2023-09-11T20:37:41.680Z,101115.53
2023-09-11T20:40:12.185Z,101112.63
2023-09-11T20:42:42.423Z,101118.47
2023-09-11T20:45:10.991Z,101114.44
2023-09-11T20:47:38.725Z,101111.63
2023-09-11T20:50:08.315Z,101111.78
2023-09-11T20:52:36.401Z,101116.47
2023-09-11T20:55:05.777Z,101112.25
2023-09-11T20:57:34.019Z,101116.41
2023-09-11T21:00:03.460Z,101116.91
2023-09-11T21:02:33.312Z,101120.69
2023-09-11T21:05:01.096Z,101133.50
2023-09-11T21:07:28.783Z,101132.84
2023-09-11T21:09:56.430Z,101134.19
2023-09-11T21:12:27.041Z,101130.81
2023-09-11T21:14:54.791Z,101138.94
2023-09-11T21:17:23.870Z,101137.13
2023-09-11T21:19:51.492Z,101136.16
2023-09-11T21:22:19.157Z,101129.13
2023-09-11T21:24:46.774Z,101142.69
2023-09-11T21:27:14.470Z,101144.56
2023-09-11T21:29:42.123Z,101124.50
2023-09-11T21:32:09.739Z,101135.19
2023-09-11T21:34:38.780Z,101130.88
2023-09-11T21:37:06.447Z,101136.88
2023-09-11T21:39:34.206Z,101130.81
2023-09-11T21:42:02.977Z,101136.34
2023-09-11T21:44:30.752Z,101134.84
2023-09-11T21:46:58.453Z,101135.19
2023-09-11T21:49:26.125Z,101132.25
2023-09-11T21:51:55.093Z,101125.81
2023-09-11T21:54:24.711Z,101124.63
2023-09-11T21:56:54.090Z,101126.53
2023-09-11T21:59:22.043Z,101120.44
2023-09-11T22:01:49.703Z,101123.09
2023-09-11T22:04:17.386Z,101117.56
2023-09-11T22:06:45.088Z,101117.72
2023-09-11T22:09:14.132Z,101124.00
2023-09-11T22:11:42.654Z,101124.25
2023-09-11T22:14:10.316Z,101114.50
2023-09-11T22:16:38.006Z,101121.69
2023-09-11T22:19:05.929Z,101113.50
2023-09-11T22:21:33.658Z,101121.69
2023-09-11T22:24:01.361Z,101115.34
2023-09-11T22:26:30.370Z,101110.59
2023-09-11T22:28:58.046Z,101123.75
2023-09-11T22:31:25.765Z,101131.00
2023-09-11T22:33:53.590Z,101139.34
2023-09-11T22:36:21.422Z,101098.75
2023-09-11T22:38:49.114Z,101136.84
2023-09-11T22:41:16.770Z,101138.91
2023-09-11T22:43:45.761Z,101136.38
2023-09-11T22:46:13.437Z,101142.88
2023-09-11T22:48:41.368Z,101133.84
2023-09-11T22:51:09.290Z,101137.72
2023-09-11T22:53:36.967Z,101146.13
2023-09-11T22:56:05.036Z,101143.75
2023-09-11T22:58:32.786Z,101147.69
2023-09-11T23:01:07.349Z,101150.47
2023-09-11T23:03:44.977Z,101152.84
2023-09-11T23:06:14.477Z,101158.41
2023-09-11T23:08:42.884Z,101164.78
2023-09-11T23:11:10.819Z,101168.28
2023-09-11T23:13:38.501Z,101171.53
2023-09-11T23:16:07.665Z,101169.94
2023-09-11T23:18:35.405Z,101165.53
2023-09-11T23:21:03.143Z,101170.53
2023-09-11T23:23:37.931Z,101158.16
2023-09-11T23:26:07.989Z,101157.16
2023-09-11T23:28:35.790Z,101155.94
2023-09-11T23:31:04.337Z,101160.28
2023-09-11T23:33:34.068Z,101157.50
2023-09-11T23:36:01.843Z,101164.38
2023-09-11T23:38:29.559Z,101171.84
2023-09-11T23:40:57.202Z,101162.41
2023-09-11T23:43:33.094Z,101159.53
2023-09-11T23:46:01.344Z,101160.50
2023-09-11T23:48:29.134Z,101168.22
2023-09-11T23:50:58.622Z,101189.22
2023-09-11T23:53:26.311Z,101190.78
2023-09-11T23:55:54.069Z,101204.81
2023-09-11T23:58:21.758Z,101200.91
